createdAt,value
2023-03-06T00:01:18.476Z,40.80
2023-03-06T00:04:08.482Z,40.80
2023-03-06T00:06:56.881Z,40.80
2023-03-06T00:09:46.532Z,40.80
2023-03-06T00:12:35.029Z,40.60
2023-03-06T00:15:24.683Z,40.60
2023-03-06T00:18:13.268Z,40.60
2023-03-06T00:21:01.585Z,40.60
2023-03-06T00:23:49.902Z,40.60
2023-03-06T00:26:41.290Z,40.50
2023-03-06T00:29:29.669Z,40.50
2023-03-06T00:32:18.136Z,40.50
2023-03-06T00:35:07.098Z,40.50
2023-03-06T00:37:55.424Z,40.50
2023-03-06T00:40:43.613Z,40.50
2023-03-06T00:43:33.238Z,40.40
2023-03-06T00:46:21.587Z,40.40
2023-03-06T00:49:09.814Z,40.40
2023-03-06T00:51:58.065Z,40.40
2023-03-06T00:54:46.428Z,40.40
2023-03-06T00:57:34.596Z,40.40
2023-03-06T01:00:24.515Z,40.40
2023-03-06T01:03:12.945Z,40.40
2023-03-06T01:06:01.252Z,40.30
2023-03-06T01:08:49.531Z,40.30
2023-03-06T01:11:37.763Z,40.30
2023-03-06T01:14:26.430Z,40.30
2023-03-06T01:17:16.023Z,40.30
2023-03-06T01:20:04.798Z,40.30
2023-03-06T01:22:54.665Z,40.30
2023-03-06T01:25:42.890Z,40.40
2023-03-06T01:28:31.452Z,40.30
2023-03-06T01:31:19.814Z,40.30
2023-03-06T01:34:09.462Z,40.30
2023-03-06T01:36:58.179Z,40.30
2023-03-06T01:39:46.548Z,40.30
2023-03-06T01:42:34.920Z,40.30
2023-03-06T01:46:00.307Z,40.30
2023-03-06T01:48:49.753Z,40.30
2023-03-06T01:51:42.158Z,40.30
2023-03-06T01:54:33.894Z,40.40
2023-03-06T01:57:25.134Z,40.30
2023-03-06T02:00:16.030Z,40.30
2023-03-06T02:03:07.744Z,40.30
2023-03-06T02:05:57.202Z,40.20
2023-03-06T02:08:47.937Z,40.20
2023-03-06T02:11:36.360Z,40.20
2023-03-06T02:14:25.292Z,40.20
2023-03-06T02:17:16.757Z,40.30
2023-03-06T02:20:12.838Z,40.30
2023-03-06T02:23:06.401Z,40.30
2023-03-06T02:25:56.725Z,40.40
2023-03-06T02:28:45.024Z,40.30
2023-03-06T02:31:35.688Z,40.40
2023-03-06T02:34:47.713Z,40.30
2023-03-06T02:37:36.029Z,40.30
2023-03-06T02:40:24.753Z,40.30
2023-03-06T02:43:16.449Z,40.30
2023-03-06T02:46:04.772Z,40.40
2023-03-06T02:48:53.019Z,40.40
2023-03-06T02:51:41.350Z,40.40
2023-03-06T02:54:29.734Z,40.50
2023-03-06T02:57:18.073Z,40.40
2023-03-06T03:00:09.528Z,40.50
2023-03-06T03:02:58.299Z,40.40
2023-03-06T03:05:46.798Z,40.40
2023-03-06T03:08:35.949Z,40.30
2023-03-06T03:11:24.398Z,40.40
2023-03-06T03:14:12.685Z,40.40
2023-03-06T03:17:02.584Z,40.40
2023-03-06T03:19:50.783Z,40.40
2023-03-06T03:22:39.150Z,40.50
2023-03-06T03:25:27.620Z,40.50
2023-03-06T03:28:15.901Z,40.50
2023-03-06T03:31:05.529Z,40.40
2023-03-06T03:33:55.352Z,40.40
2023-03-06T03:36:43.619Z,40.40
2023-03-06T03:39:31.977Z,40.40
2023-03-06T03:42:20.422Z,40.40
2023-03-06T03:45:09.668Z,40.40
2023-03-06T03:47:57.922Z,40.40
2023-03-06T03:50:47.776Z,40.40
2023-03-06T03:53:36.276Z,40.50
2023-03-06T03:56:25.142Z,40.40
2023-03-06T03:59:13.537Z,40.40
2023-03-06T04:02:04.729Z,40.40
2023-03-06T04:04:53.245Z,40.40
2023-03-06T04:07:43.683Z,40.30
2023-03-06T04:10:31.975Z,40.30
2023-03-06T04:13:21.129Z,40.30
2023-03-06T04:16:09.820Z,40.30
2023-03-06T04:18:58.196Z,40.20
2023-03-06T04:21:46.421Z,40.20
2023-03-06T04:24:36.090Z,40.20
2023-03-06T04:27:24.406Z,40.20
2023-03-06T04:30:13.626Z,40.10
2023-03-06T04:33:02.124Z,40.00
2023-03-06T04:35:50.726Z,40.00
2023-03-06T04:38:38.996Z,40.00
2023-03-06T04:41:28.844Z,40.00
2023-03-06T04:44:17.182Z,40.00
2023-03-06T04:47:05.624Z,40.00
2023-03-06T04:49:53.852Z,40.00
2023-03-06T04:52:42.122Z,40.00
2023-03-06T04:55:30.485Z,40.10
2023-03-06T04:58:20.809Z,39.90
2023-03-06T05:01:09.218Z,39.90
2023-03-06T05:03:57.656Z,39.90
2023-03-06T05:06:46.024Z,39.90
2023-03-06T05:09:37.170Z,40.00
2023-03-06T05:12:26.788Z,39.90
2023-03-06T05:15:16.637Z,40.00
2023-03-06T05:18:05.141Z,39.90
2023-03-06T05:20:53.434Z,40.00
2023-03-06T05:23:41.956Z,39.90
2023-03-06T05:26:30.211Z,40.30
2023-03-06T05:29:18.599Z,40.10
2023-03-06T05:32:09.294Z,40.10
2023-03-06T05:34:57.807Z,40.20
2023-03-06T05:37:46.184Z,40.20
2023-03-06T05:40:34.683Z,40.20
2023-03-06T05:43:22.969Z,40.20
2023-03-06T05:46:12.819Z,40.20
2023-03-06T05:49:02.490Z,40.20
2023-03-06T05:51:50.970Z,40.20
2023-03-06T05:54:39.391Z,40.10
2023-03-06T05:57:27.673Z,40.00
2023-03-06T06:00:17.161Z,40.00
2023-03-06T06:03:05.729Z,40.00
2023-03-06T06:05:55.447Z,40.00
2023-03-06T06:08:44.168Z,40.00
2023-03-06T06:11:32.422Z,40.50
2023-03-06T06:14:20.755Z,40.30
2023-03-06T06:17:09.224Z,40.30
2023-03-06T06:19:57.480Z,40.40
2023-03-06T06:22:47.111Z,40.30
2023-03-06T06:25:35.404Z,40.30
2023-03-06T06:28:24.609Z,40.30
2023-03-06T06:31:13.814Z,40.30
2023-03-06T06:34:02.159Z,40.30
2023-03-06T06:36:53.321Z,40.30
2023-03-06T06:39:43.362Z,40.30
2023-03-06T06:42:39.056Z,40.30
2023-03-06T06:45:28.246Z,40.30
2023-03-06T06:48:17.824Z,40.20
2023-03-06T06:51:07.035Z,40.20
2023-03-06T06:53:55.269Z,40.20
2023-03-06T06:56:45.021Z,40.10
2023-03-06T06:59:33.343Z,40.10
2023-03-06T07:02:21.648Z,40.10
2023-03-06T07:05:10.747Z,40.10
2023-03-06T07:07:59.286Z,40.00
2023-03-06T07:10:47.552Z,41.40
2023-03-06T07:13:37.244Z,40.90
2023-03-06T07:16:25.838Z,40.60
2023-03-06T07:19:14.278Z,40.50
2023-03-06T07:22:02.658Z,40.50
2023-03-06T07:24:50.915Z,40.30
2023-03-06T07:27:39.366Z,40.30
2023-03-06T07:30:29.076Z,40.30
2023-03-06T07:33:18.247Z,40.20
2023-03-06T07:36:11.807Z,40.20
2023-03-06T07:39:01.133Z,40.20
2023-03-06T07:41:49.412Z,40.10
2023-03-06T07:44:38.149Z,40.00
2023-03-06T07:47:27.883Z,40.00
2023-03-06T07:50:16.202Z,40.00
2023-03-06T07:53:04.457Z,40.00
2023-03-06T07:55:52.812Z,39.90
2023-03-06T07:58:42.986Z,39.90
2023-03-06T08:01:31.668Z,39.80
2023-03-06T08:04:21.380Z,39.80
2023-03-06T08:07:10.054Z,39.80
2023-03-06T08:09:58.678Z,39.80
2023-03-06T08:12:46.885Z,39.70
2023-03-06T08:15:35.091Z,39.70
2023-03-06T08:18:23.637Z,39.70
2023-03-06T08:21:15.275Z,39.60
2023-03-06T08:24:03.627Z,39.60
2023-03-06T08:26:51.960Z,39.60
2023-03-06T08:29:40.293Z,39.50
2023-03-06T08:32:29.204Z,39.50
2023-03-06T08:35:17.573Z,39.50
2023-03-06T08:38:07.323Z,39.50
2023-03-06T08:40:55.574Z,39.50
2023-03-06T08:43:44.742Z,39.40
2023-03-06T08:46:33.830Z,39.90
2023-03-06T08:49:22.410Z,39.70
2023-03-06T08:52:12.480Z,39.70
2023-03-06T08:55:04.608Z,39.60
2023-03-06T08:57:53.816Z,39.60
2023-03-06T09:00:42.385Z,39.60
2023-03-06T09:03:30.867Z,39.60
2023-03-06T09:06:19.204Z,39.50
2023-03-06T09:09:08.649Z,39.50
2023-03-06T09:11:58.339Z,39.50
2023-03-06T09:14:46.654Z,39.50
2023-03-06T09:17:35.072Z,39.40
2023-03-06T09:20:23.963Z,39.40
2023-03-06T09:23:12.504Z,39.40
2023-03-06T09:26:02.144Z,39.30
2023-03-06T09:28:51.770Z,39.30
2023-03-06T09:31:40.100Z,39.30
2023-03-06T09:34:28.552Z,39.30
2023-03-06T09:37:17.614Z,39.30
2023-03-06T09:40:07.258Z,39.20
2023-03-06T09:42:55.502Z,39.20
2023-03-06T09:45:45.453Z,39.20
2023-03-06T09:48:42.686Z,39.20
2023-03-06T09:51:42.636Z,39.20
2023-03-06T09:54:40.351Z,40.00
2023-03-06T09:57:31.558Z,39.80
2023-03-06T10:00:25.168Z,39.70
2023-03-06T10:03:24.093Z,39.70
2023-03-06T10:06:17.326Z,39.60
2023-03-06T10:09:10.825Z,40.60
2023-03-06T10:12:03.792Z,40.40
2023-03-06T10:15:07.305Z,40.20
2023-03-06T10:17:57.120Z,40.00
2023-03-06T10:20:52.650Z,39.80
2023-03-06T10:23:47.042Z,39.70
2023-03-06T10:26:41.177Z,39.60
2023-03-06T10:30:02.291Z,39.50
2023-03-06T10:32:58.647Z,39.40
2023-03-06T10:35:50.815Z,39.40
2023-03-06T10:38:40.505Z,39.40
2023-03-06T10:41:30.096Z,39.30
2023-03-06T10:44:25.846Z,39.30
2023-03-06T10:47:30.335Z,39.30
2023-03-06T10:50:25.751Z,39.20
2023-03-06T10:53:23.071Z,39.20
2023-03-06T10:56:11.311Z,39.20
2023-03-06T10:59:12.763Z,39.20
2023-03-06T11:02:28.663Z,39.10
2023-03-06T11:05:21.639Z,39.10
2023-03-06T11:08:23.660Z,39.10
2023-03-06T11:11:16.921Z,39.10
2023-03-06T11:14:16.518Z,39.00
2023-03-06T11:17:04.959Z,39.00
2023-03-06T11:19:53.169Z,39.00
2023-03-06T11:22:41.741Z,38.90
2023-03-06T11:25:35.211Z,38.90
2023-03-06T11:28:27.097Z,38.90
2023-03-06T11:31:19.751Z,38.90
2023-03-06T11:34:15.801Z,38.80
2023-03-06T11:37:10.394Z,38.80
2023-03-06T11:40:05.883Z,38.70
2023-03-06T11:43:05.605Z,38.70
2023-03-06T11:46:00.433Z,38.50
2023-03-06T11:48:54.414Z,38.50
2023-03-06T11:51:48.953Z,38.60
2023-03-06T11:54:37.460Z,38.50
2023-03-06T11:57:34.191Z,38.50
2023-03-06T12:00:42.742Z,38.50
2023-03-06T12:03:57.623Z,38.50
2023-03-06T12:06:58.673Z,38.40
2023-03-06T12:09:54.193Z,38.30
2023-03-06T12:13:13.902Z,38.20
2023-03-06T12:16:30.241Z,38.10
2023-03-06T12:19:35.226Z,38.20
2023-03-06T12:22:41.304Z,38.20
2023-03-06T12:25:35.217Z,38.70
2023-03-06T12:28:36.861Z,38.60
2023-03-06T12:31:42.899Z,38.60
2023-03-06T12:34:49.457Z,38.60
2023-03-06T12:37:49.777Z,38.60
2023-03-06T12:40:54.933Z,38.60
2023-03-06T12:44:05.508Z,38.50
2023-03-06T12:46:58.321Z,38.40
2023-03-06T12:49:52.705Z,38.40
2023-03-06T12:52:42.143Z,38.30
2023-03-06T12:55:42.206Z,38.10
2023-03-06T12:58:51.073Z,38.10
2023-03-06T13:02:11.106Z,37.70
2023-03-06T13:05:28.598Z,37.40
2023-03-06T13:08:53.172Z,37.20
2023-03-06T13:12:09.014Z,37.90
2023-03-06T13:15:00.598Z,37.60
2023-03-06T13:17:48.926Z,37.40
2023-03-06T13:20:46.685Z,37.10
2023-03-06T13:24:04.437Z,36.50
2023-03-06T13:26:57.692Z,35.90
2023-03-06T13:30:06.484Z,36.00
2023-03-06T13:32:55.567Z,35.60
2023-03-06T13:35:55.510Z,35.50
2023-03-06T13:39:09.846Z,35.10
2023-03-06T13:41:59.875Z,34.80
2023-03-06T13:44:51.170Z,34.80
2023-03-06T13:48:05.801Z,34.70
2023-03-06T13:50:50.767Z,34.60
2023-03-06T13:54:21.387Z,34.50
2023-03-06T13:57:44.732Z,34.00
2023-03-06T14:00:53.573Z,33.80
2023-03-06T14:04:27.413Z,33.60
2023-03-06T14:07:27.406Z,33.50
2023-03-06T14:10:26.003Z,33.50
2023-03-06T14:13:18.710Z,33.50
2023-03-06T14:16:18.561Z,33.80
2023-03-06T14:19:16.901Z,33.80
2023-03-06T14:22:07.078Z,33.90
2023-03-06T14:25:03.071Z,33.90
2023-03-06T14:27:58.220Z,33.80
2023-03-06T14:30:55.284Z,33.70
2023-03-06T14:33:52.934Z,33.50
2023-03-06T14:36:45.630Z,33.00
2023-03-06T14:39:37.308Z,33.10
2023-03-06T14:42:27.381Z,33.20
2023-03-06T14:45:20.213Z,33.20
2023-03-06T14:48:15.443Z,33.20
2023-03-06T14:51:03.880Z,33.20
2023-03-06T14:53:55.000Z,33.20
2023-03-06T14:56:46.007Z,33.20
2023-03-06T14:59:40.669Z,33.20
2023-03-06T15:02:33.075Z,33.20
2023-03-06T15:05:26.313Z,33.20
2023-03-06T15:08:18.592Z,33.10
2023-03-06T15:11:08.308Z,33.20
2023-03-06T15:14:04.362Z,33.20
2023-03-06T15:16:52.800Z,33.20
2023-03-06T15:19:42.795Z,33.30
2023-03-06T15:22:35.708Z,33.30
2023-03-06T15:25:27.720Z,33.40
2023-03-06T15:28:32.766Z,33.40
2023-03-06T15:31:24.136Z,33.40
2023-03-06T15:34:18.764Z,33.60
2023-03-06T15:37:28.919Z,33.60
2023-03-06T15:40:22.354Z,33.60
2023-03-06T15:43:12.318Z,33.80
2023-03-06T15:46:02.326Z,33.80
2023-03-06T15:48:55.007Z,33.90
2023-03-06T15:51:43.538Z,34.00
2023-03-06T15:54:33.367Z,34.10
2023-03-06T15:57:24.512Z,34.20
2023-03-06T16:00:27.710Z,34.30
2023-03-06T16:03:16.499Z,34.40
2023-03-06T16:06:04.889Z,34.50
2023-03-06T16:08:53.818Z,34.60
2023-03-06T16:11:45.738Z,34.60
2023-03-06T16:14:34.122Z,34.60
2023-03-06T16:17:22.411Z,34.80
2023-03-06T16:20:17.624Z,34.90
2023-03-06T16:23:10.431Z,35.00
2023-03-06T16:25:59.053Z,35.10
2023-03-06T16:28:49.626Z,35.20
2023-03-06T16:31:39.311Z,35.30
2023-03-06T16:34:27.807Z,35.30
2023-03-06T16:37:16.025Z,35.40
2023-03-06T16:40:06.930Z,35.50
2023-03-06T16:42:55.356Z,35.60
2023-03-06T16:45:45.085Z,35.70
2023-03-06T16:48:33.775Z,35.70
2023-03-06T16:51:23.766Z,35.70
2023-03-06T16:54:12.882Z,35.80
2023-03-06T16:57:01.321Z,35.80
2023-03-06T16:59:49.598Z,35.90
2023-03-06T17:02:39.922Z,36.00
2023-03-06T17:05:28.717Z,36.00
2023-03-06T17:08:17.029Z,36.10
2023-03-06T17:11:06.933Z,36.10
2023-03-06T17:13:55.939Z,36.20
2023-03-06T17:16:44.271Z,39.50
2023-03-06T17:19:34.051Z,42.30
2023-03-06T17:22:22.361Z,41.50
2023-03-06T17:25:11.637Z,40.50
2023-03-06T17:27:59.880Z,40.10
2023-03-06T17:30:48.120Z,39.70
2023-03-06T17:33:36.539Z,39.60
2023-03-06T17:36:26.586Z,39.50
2023-03-06T17:39:16.310Z,39.40
2023-03-06T17:42:06.035Z,39.00
2023-03-06T17:44:54.801Z,38.90
2023-03-06T17:47:43.361Z,38.80
2023-03-06T17:50:31.633Z,38.80
2023-03-06T17:53:21.791Z,38.60
2023-03-06T17:56:12.517Z,38.50
2023-03-06T17:59:00.980Z,38.50
2023-03-06T18:01:49.276Z,38.50
2023-03-06T18:04:37.586Z,38.50
2023-03-06T18:07:26.700Z,38.50
2023-03-06T18:10:16.510Z,38.40
2023-03-06T18:13:04.864Z,38.40
2023-03-06T18:15:53.310Z,38.40
2023-03-06T18:18:41.968Z,38.40
2023-03-06T18:21:30.316Z,38.50
2023-03-06T18:24:18.497Z,38.40
2023-03-06T18:27:08.549Z,38.30
2023-03-06T18:29:58.481Z,38.30
2023-03-06T18:32:46.986Z,38.30
2023-03-06T18:35:35.828Z,38.30
2023-03-06T18:38:24.380Z,38.30
2023-03-06T18:41:14.142Z,38.30
2023-03-06T18:44:04.132Z,38.40
2023-03-06T18:46:52.461Z,38.40
2023-03-06T18:49:43.135Z,38.40
2023-03-06T18:52:32.228Z,38.40
2023-03-06T18:55:20.698Z,38.40
2023-03-06T18:58:08.847Z,38.40
2023-03-06T19:00:59.667Z,38.40
2023-03-06T19:03:48.396Z,38.40
2023-03-06T19:06:39.145Z,38.50
2023-03-06T19:09:27.375Z,38.50
2023-03-06T19:12:15.684Z,38.50
2023-03-06T19:15:04.730Z,38.50
2023-03-06T19:17:54.504Z,38.60
2023-03-06T19:20:42.740Z,38.60
2023-03-06T19:23:31.190Z,38.70
2023-03-06T19:26:19.922Z,38.60
2023-03-06T19:29:08.336Z,38.50
2023-03-06T19:31:57.326Z,38.50
2023-03-06T19:34:49.688Z,38.50
2023-03-06T19:37:38.263Z,38.50
2023-03-06T19:40:26.618Z,38.50
2023-03-06T19:43:15.301Z,38.60
2023-03-06T19:46:03.848Z,38.60
2023-03-06T19:48:57.194Z,39.40
2023-03-06T19:51:46.871Z,39.10
2023-03-06T19:54:35.245Z,39.10
2023-03-06T19:57:23.528Z,38.90
2023-03-06T20:00:13.238Z,38.90
2023-03-06T20:03:01.660Z,38.90
2023-03-06T20:05:50.156Z,38.90
2023-03-06T20:08:39.806Z,38.90
2023-03-06T20:11:30.539Z,38.80
2023-03-06T20:14:19.375Z,39.00
2023-03-06T20:17:07.920Z,39.10
2023-03-06T20:19:56.494Z,39.10
2023-03-06T20:22:50.605Z,39.10
2023-03-06T20:25:40.450Z,39.00
2023-03-06T20:28:28.695Z,39.00
2023-03-06T20:31:18.900Z,39.00
2023-03-06T20:34:07.678Z,39.00
2023-03-06T20:36:56.863Z,39.00
2023-03-06T20:39:45.490Z,39.00
2023-03-06T20:42:35.274Z,41.20
2023-03-06T20:45:23.601Z,42.10
2023-03-06T20:48:11.773Z,41.30
2023-03-06T20:51:01.401Z,40.90
2023-03-06T20:53:51.531Z,40.80
2023-03-06T20:56:41.265Z,40.50
2023-03-06T20:59:31.084Z,40.30
2023-03-06T21:02:19.314Z,40.20
2023-03-06T21:05:08.561Z,40.10
2023-03-06T21:07:56.892Z,39.90
2023-03-06T21:10:46.697Z,39.90
2023-03-06T21:13:35.041Z,39.80
2023-03-06T21:16:26.518Z,39.70
2023-03-06T21:19:15.028Z,39.70
2023-03-06T21:22:03.605Z,39.70
2023-03-06T21:24:52.103Z,39.60
2023-03-06T21:27:43.040Z,39.50
2023-03-06T21:30:31.290Z,39.50
2023-03-06T21:33:20.982Z,39.50
2023-03-06T21:36:10.455Z,39.50
2023-03-06T21:38:58.717Z,39.50
2023-03-06T21:41:46.993Z,39.50
2023-03-06T21:44:35.337Z,39.50
2023-03-06T21:47:23.770Z,39.50
2023-03-06T21:50:14.119Z,39.50
2023-03-06T21:53:02.380Z,39.50
2023-03-06T21:55:50.747Z,39.40
2023-03-06T21:58:39.250Z,39.30
2023-03-06T22:01:29.488Z,39.40
2023-03-06T22:04:17.717Z,39.40
2023-03-06T22:07:07.471Z,39.30
2023-03-06T22:09:56.008Z,39.30
2023-03-06T22:12:45.840Z,39.30
2023-03-06T22:15:34.191Z,39.30
2023-03-06T22:18:22.391Z,39.30
2023-03-06T22:21:12.471Z,39.40
2023-03-06T22:24:02.064Z,39.30
2023-03-06T22:26:50.320Z,39.30
2023-03-06T22:29:38.480Z,39.30
2023-03-06T22:32:26.841Z,39.30
2023-03-06T22:35:15.340Z,39.30
2023-03-06T22:38:04.621Z,39.30
2023-03-06T22:40:57.706Z,39.30
2023-03-06T22:43:45.954Z,39.20
2023-03-06T22:46:34.475Z,39.30
2023-03-06T22:49:22.853Z,39.30
2023-03-06T22:52:11.237Z,39.20
2023-03-06T22:54:59.639Z,39.30
2023-03-06T22:57:50.194Z,39.20
2023-03-06T23:00:39.168Z,39.20
2023-03-06T23:03:27.474Z,39.30
2023-03-06T23:06:17.577Z,39.20
2023-03-06T23:09:08.483Z,39.30
2023-03-06T23:11:56.921Z,39.30
2023-03-06T23:14:49.772Z,39.30
2023-03-06T23:17:38.120Z,39.30
2023-03-06T23:20:26.539Z,39.30
2023-03-06T23:23:14.805Z,39.20
2023-03-06T23:26:03.841Z,39.20
2023-03-06T23:28:52.356Z,39.20
2023-03-06T23:31:43.281Z,39.20
2023-03-06T23:34:33.264Z,39.20
2023-03-06T23:37:26.182Z,39.20
2023-03-06T23:40:16.796Z,39.20
2023-03-06T23:43:07.775Z,39.20
2023-03-06T23:45:58.862Z,39.20
2023-03-06T23:48:49.882Z,39.20
2023-03-06T23:51:38.113Z,39.10
2023-03-06T23:54:26.718Z,39.10
2023-03-06T23:57:14.906Z,39.20
